Time;durP1;ratioP1;P1;durP2;ratioP2;P2;SDS_P1;SDS_P2;PMS_P1;PMS_P2;Temp;Humidity;BMP_temperature;BMP_pressure;BME280_temperature;BME280_humidity;BME280_pressure;Samples;Min_cycle;Max_cycle;Signal;HPM_P1;HPM_P2
2022/03/20 00:01:35;;;;;;;16.07;8.30;;;;;;;1.14;50.72;97999.88;10457575;28;20231;-51
2022/03/20 00:06:35;;;;;;;16.97;8.77;;;;;;;0.91;50.98;97996.53;10457327;28;20227;-53
2022/03/20 00:11:37;;;;;;;21.30;8.03;;;;;;;0.97;49.52;97952.41;10457164;28;20290;-50
2022/03/20 00:16:37;;;;;;;16.93;6.50;;;;;;;1.31;48.55;97940.59;10456811;28;20323;-55
2022/03/20 00:21:38;;;;;;;19.10;8.80;;;;;;;1.43;48.70;97940.06;10456764;28;20192;-51
2022/03/20 00:26:39;;;;;;;17.27;8.63;;;;;;;1.89;46.60;97889.75;10456516;28;20223;-56
2022/03/20 00:31:39;;;;;;;25.37;9.33;;;;;;;1.85;47.39;97914.06;10438537;28;20579;-50
2022/03/20 00:36:40;;;;;;;20.10;9.23;;;;;;;1.81;47.07;97897.88;10456107;28;20286;-54
2022/03/20 00:41:40;;;;;;;16.70;8.20;;;;;;;1.84;46.85;97902.03;10456135;28;20188;-50
2022/03/20 00:46:40;;;;;;;17.83;8.43;;;;;;;1.97;46.37;97879.88;10455661;28;20227;-53
2022/03/20 00:51:42;;;;;;;14.33;7.03;;;;;;;1.97;46.11;97879.88;10455758;28;20223;-55
2022/03/20 00:56:42;;;;;;;18.67;8.63;;;;;;;1.98;46.42;97871.22;10455378;28;20298;-56
2022/03/20 01:01:43;;;;;;;19.00;9.07;;;;;;;1.54;48.33;97920.66;10455397;28;20595;-50
2022/03/20 01:06:44;;;;;;;25.00;9.13;;;;;;;1.19;50.42;97975.53;10454847;28;20720;-57
2022/03/20 01:11:44;;;;;;;18.53;9.50;;;;;;;0.91;51.00;97978.47;10454903;28;20211;-50
2022/03/20 01:16:45;;;;;;;17.70;9.40;;;;;;;0.89;51.63;97993.19;10454471;28;20239;-51
2022/03/20 01:21:45;;;;;;;18.50;8.90;;;;;;;0.71;53.01;98031.72;10453835;28;20198;-50
2022/03/20 01:26:46;;;;;;;24.40;10.07;;;;;;;1.67;49.58;97951.91;10454371;28;20250;-52
2022/03/20 01:31:46;;;;;;;23.57;10.73;;;;;;;1.45;50.92;97993.38;10454075;28;20188;-52
2022/03/20 01:36:46;;;;;;;14.70;9.33;;;;;;;1.28;51.71;98007.84;10453986;28;20208;-52
2022/03/20 01:41:47;;;;;;;22.93;10.50;;;;;;;1.51;50.67;97969.88;10453657;28;20666;-51
2022/03/20 01:46:47;;;;;;;18.10;9.63;;;;;;;1.50;50.86;97973.34;10453498;28;20717;-55
2022/03/20 01:57:07;;;;;;;20.47;9.23;;;;;;;1.13;52.51;98011.94;10453424;28;20216;-56
2022/03/20 02:02:07;;;;;;;20.70;10.63;;;;;;;0.74;54.24;98048.00;10452662;28;20670;-50
2022/03/20 02:07:08;;;;;;;17.17;9.93;;;;;;;0.80;54.12;98032.25;10453049;28;20216;-51
2022/03/20 02:12:10;;;;;;;21.80;10.50;;;;;;;0.46;55.58;98062.81;10453122;28;20614;-50
2022/03/20 02:17:11;;;;;;;18.47;10.30;;;;;;;0.31;56.40;98078.88;10452677;28;20334;-50
2022/03/20 02:22:12;;;;;;;17.67;9.77;;;;;;;0.13;57.52;98094.13;10452782;28;20188;-50
2022/03/20 02:27:22;;;;;;;23.10;10.27;;;;;;;-0.21;58.78;98128.84;10452655;28;20713;-51
2022/03/20 02:32:23;;;;;;;19.20;10.70;;;;;;;-0.31;59.16;98139.53;10456969;28;20700;-51
2022/03/20 02:37:24;;;;;;;24.47;11.53;;;;;;;-0.40;59.90;98154.41;10461132;28;20200;-51
2022/03/20 02:42:26;;;;;;;23.43;10.37;;;;;;;-0.51;60.62;98160.81;10460574;28;20199;-51
2022/03/20 02:47:29;;;;;;;21.03;10.50;;;;;;;-0.59;61.98;98186.81;10460814;28;20677;-51
2022/03/20 02:52:32;;;;;;;21.60;11.47;;;;;;;-0.55;62.63;98196.94;10460196;28;20237;-51
2022/03/20 02:57:32;;;;;;;28.23;11.73;;;;;;;-0.45;62.85;98212.91;10442274;28;20211;-50
2022/03/20 03:02:39;;;;;;;25.87;11.57;;;;;;;-0.24;62.27;98185.59;10460122;28;20227;-51
2022/03/20 03:12:58;;;;;;;21.47;11.17;;;;;;;-0.08;61.78;98180.75;10459412;28;20232;-50
2022/03/20 03:18:00;;;;;;;23.80;11.83;;;;;;;-0.32;63.56;98222.81;10459424;28;20196;-51
2022/03/20 03:23:01;;;;;;;28.33;13.37;;;;;;;-0.01;61.58;98171.91;10459229;28;20223;-50
2022/03/20 03:28:03;;;;;;;26.63;12.47;;;;;;;-0.31;63.62;98201.31;10458948;28;20618;-51
2022/03/20 03:33:03;;;;;;;24.00;12.40;;;;;;;0.09;62.44;98176.75;10458875;28;20253;-50
2022/03/20 03:38:04;;;;;;;26.50;13.73;;;;;;;0.15;62.64;98189.41;10458592;28;20213;-50
2022/03/20 03:43:04;;;;;;;27.20;12.40;;;;;;;0.66;61.22;98165.19;10457967;28;20216;-50
2022/03/20 03:48:05;;;;;;;23.57;11.93;;;;;;;1.26;59.34;98115.50;10458314;28;20676;-50
2022/03/20 03:53:09;;;;;;;25.30;13.83;;;;;;;1.19;59.89;98117.50;10457928;28;20204;-51
2022/03/20 03:58:13;;;;;;;25.07;14.10;;;;;;;1.22;59.56;98124.28;10458046;28;20188;-50
2022/03/20 04:03:14;;;;;;;27.17;14.80;;;;;;;1.11;59.83;98132.47;10457785;28;20231;-51
2022/03/20 04:08:16;;;;;;;33.23;12.63;;;;;;;1.22;59.21;98119.13;10457562;28;20195;-50
2022/03/20 04:13:17;;;;;;;33.67;17.23;;;;;;;0.83;60.52;98151.63;10479891;23;20245;-52
2022/03/20 04:18:18;;;;;;;102.80;23.13;;;;;;;0.71;60.51;98146.94;10413969;28;20731;-53
2022/03/20 04:28:38;;;;;;;24.83;12.93;;;;;;;0.33;61.91;98175.84;10414390;28;20200;-54
2022/03/20 04:33:38;;;;;;;27.50;14.80;;;;;;;0.07;63.22;98199.16;10413940;28;20205;-55
2022/03/20 04:38:39;;;;;;;26.13;13.17;;;;;;;-0.19;64.16;98200.91;10414306;28;20227;-54
2022/03/20 04:43:40;;;;;;;31.80;13.20;;;;;;;-0.47;66.05;98247.34;10413752;28;20221;-52
2022/03/20 04:59:18;;;;;;;26.07;12.97;;;;;;;-1.56;70.26;98311.44;10413098;28;20214;-53
2022/03/20 05:04:19;;;;;;;27.70;13.17;;;;;;;-1.56;71.04;98329.41;10413204;28;20278;-53
2022/03/20 05:14:39;;;;;;;26.53;12.37;;;;;;;-1.28;70.45;98295.22;10412536;28;20268;-54
2022/03/20 05:19:43;;;;;;;13.43;5.63;;;;;;;-0.64;66.77;98219.59;10411995;28;20279;-53
2022/03/20 05:24:43;;;;;;;21.80;9.33;;;;;;;-0.53;66.36;98217.47;10412320;28;20217;-54
2022/03/20 05:29:43;;;;;;;19.53;10.20;;;;;;;0.84;58.86;98065.59;10412187;28;20211;-55
2022/03/20 05:34:44;;;;;;;15.43;7.07;;;;;;;1.74;54.14;97979.97;10411945;28;20205;-54
2022/03/20 05:39:45;;;;;;;18.30;9.53;;;;;;;1.80;53.24;97960.78;10412090;28;20196;-53
2022/03/20 05:44:46;;;;;;;13.13;6.40;;;;;;;2.00;52.20;97938.34;10411293;28;20239;-53
2022/03/20 05:49:46;;;;;;;17.20;8.10;;;;;;;2.17;51.12;97925.44;10411842;28;20203;-53
2022/03/20 05:54:47;;;;;;;17.10;10.73;;;;;;;2.05;51.47;97950.16;10411085;28;20254;-56
2022/03/20 05:59:47;;;;;;;18.27;9.83;;;;;;;2.14;50.71;97952.31;10411359;28;20188;-53
2022/03/20 06:04:48;;;;;;;12.30;7.00;;;;;;;2.22;49.73;97930.38;10410931;28;20235;-53
2022/03/20 06:09:48;;;;;;;15.50;8.67;;;;;;;2.12;50.58;97959.25;10410877;28;20291;-53
2022/03/20 06:14:48;;;;;;;17.27;9.30;;;;;;;2.21;50.46;97965.75;10410529;28;20800;-55
2022/03/20 06:19:49;;;;;;;17.40;9.63;;;;;;;2.64;50.17;97968.00;10410380;28;20694;-54
2022/03/20 06:24:49;;;;;;;17.53;9.73;;;;;;;3.46;48.07;97948.28;10410579;28;20252;-53
2022/03/20 06:29:50;;;;;;;20.17;9.53;;;;;;;3.46;47.53;97930.16;10410629;28;20200;-53
2022/03/20 06:34:51;;;;;;;17.43;9.97;;;;;;;3.45;47.19;97921.56;10410298;28;20204;-53
2022/03/20 06:39:51;;;;;;;15.07;9.73;;;;;;;3.50;47.12;97929.09;10410398;28;20196;-53
2022/03/20 06:44:51;;;;;;;17.77;8.30;;;;;;;3.62;47.07;97932.78;10410083;28;20817;-53
2022/03/20 06:49:53;;;;;;;12.37;5.73;;;;;;;3.52;45.59;97884.06;10410044;28;20201;-54
2022/03/20 06:54:55;;;;;;;16.63;7.50;;;;;;;3.93;46.26;97935.34;10410096;28;20204;-53
2022/03/20 06:59:56;;;;;;;10.17;5.73;;;;;;;3.88;45.82;97914.03;10409866;28;20200;-53
2022/03/20 07:04:57;;;;;;;15.73;6.93;;;;;;;4.10;44.39;97892.97;10392050;28;20302;-53
2022/03/20 07:09:57;;;;;;;14.10;7.57;;;;;;;4.70;43.79;97890.41;10409788;28;20221;-53
2022/03/20 07:14:58;;;;;;;12.93;7.73;;;;;;;4.57;43.53;97880.75;10409418;28;20243;-53
2022/03/20 07:19:58;;;;;;;7.53;4.37;;;;;;;4.73;42.16;97851.28;10414793;28;20193;-52
2022/03/20 07:29:29;;;;;;;12.57;6.17;;;;;;;4.63;42.08;97845.81;10397476;28;20327;-55
2022/03/20 07:30:19;;;;;;;15.57;8.20;;;;;;;5.11;42.38;97867.13;10416942;28;20696;-53
2022/03/20 07:35:19;;;;;;;13.30;7.53;;;;;;;5.35;41.65;97867.41;10416403;28;20212;-54
2022/03/20 07:40:21;;;;;;;11.43;6.87;;;;;;;5.36;41.16;97839.66;10416649;28;20200;-54
2022/03/20 07:45:22;;;;;;;12.67;5.73;;;;;;;5.28;40.73;97845.34;10415958;28;20686;-54
2022/03/20 07:50:23;;;;;;;11.27;6.27;;;;;;;5.33;40.45;97847.66;10414422;28;20204;-54
2022/03/20 07:55:24;;;;;;;13.20;5.53;;;;;;;5.72;41.25;97861.66;10416117;28;20597;-54
2022/03/20 08:00:24;;;;;;;13.63;6.17;;;;;;;5.75;40.76;97842.44;10415670;28;20200;-56
2022/03/20 08:05:25;;;;;;;11.60;5.80;;;;;;;5.21;40.94;97854.44;10415327;28;20228;-54
2022/03/20 08:10:25;;;;;;;10.70;4.57;;;;;;;5.85;40.83;97861.69;10415267;28;20201;-54
2022/03/20 08:15:26;;;;;;;19.07;8.63;;;;;;;6.23;39.99;97858.41;10415511;28;20228;-54
2022/03/20 08:20:27;;;;;;;16.03;6.77;;;;;;;5.88;40.32;97866.69;10414908;28;20212;-54
2022/03/20 08:25:27;;;;;;;11.53;6.43;;;;;;;6.34;39.21;97829.94;10414750;28;20231;-54
2022/03/20 08:30:28;;;;;;;12.67;7.03;;;;;;;6.49;39.76;97855.84;10413502;28;20307;-54
2022/03/20 08:35:28;;;;;;;14.00;8.00;;;;;;;7.53;38.48;97873.91;10401323;28;20208;-59
2022/03/20 08:40:29;;;;;;;15.70;7.90;;;;;;;7.18;38.99;97877.19;10372244;28;20655;-56
2022/03/20 08:45:31;;;;;;;13.47;7.60;;;;;;;7.15;39.23;97864.38;10410448;28;20239;-55
2022/03/20 08:50:32;;;;;;;13.37;6.83;;;;;;;7.06;38.83;97850.25;10408665;28;20675;-57
2022/03/20 08:55:33;;;;;;;11.30;6.80;;;;;;;7.16;38.95;97860.84;10406876;28;20299;-56
2022/03/20 09:00:33;;;;;;;9.67;6.63;;;;;;;6.96;38.95;97877.84;10407721;28;20306;-56
2022/03/20 09:05:33;;;;;;;9.37;5.23;;;;;;;7.24;38.58;97862.91;10408375;28;20247;-58
2022/03/20 09:10:34;;;;;;;10.43;5.50;;;;;;;7.30;38.48;97852.91;10408620;28;20200;-56
2022/03/20 09:15:34;;;;;;;9.87;6.03;;;;;;;7.37;38.90;97884.59;10409424;28;20228;-53
2022/03/20 09:20:37;;;;;;;14.10;8.50;;;;;;;7.01;38.52;97856.69;10408973;28;20196;-54
2022/03/20 09:25:38;;;;;;;15.30;6.83;;;;;;;8.30;37.28;97857.94;10399858;28;20236;-59
2022/03/20 09:30:40;;;;;;;17.90;8.23;;;;;;;8.39;36.85;97838.13;10400168;28;20199;-58
2022/03/20 09:35:41;;;;;;;15.70;8.17;;;;;;;8.30;37.19;97854.47;10406987;28;20205;-61
2022/03/20 09:40:42;;;;;;;13.83;7.30;;;;;;;7.67;37.39;97839.00;10408518;28;20193;-61
2022/03/20 09:45:43;;;;;;;12.67;7.90;;;;;;;7.82;37.60;97863.16;10388321;28;20208;-56
2022/03/20 09:50:43;;;;;;;11.40;6.77;;;;;;;7.52;37.80;97859.22;10405536;28;20196;-61
2022/03/20 09:55:45;;;;;;;11.03;7.13;;;;;;;8.27;36.67;97844.25;10387200;28;20208;-58
2022/03/20 10:00:45;;;;;;;14.13;8.83;;;;;;;7.73;35.99;97811.66;10403665;28;20283;-58
2022/03/20 10:06:05;;;;;;;16.53;7.87;;;;;;;8.24;36.30;97865.38;10406986;28;20212;-56
2022/03/20 10:11:18;;;;;;;12.27;6.37;;;;;;;8.41;36.44;97849.28;10404760;28;20295;-57
2022/03/20 10:16:18;;;;;;;14.00;7.70;;;;;;;8.32;35.71;97809.03;10437680;23;20302;-62
2022/03/20 10:21:19;;;;;;;9.37;5.90;;;;;;;7.59;35.42;97813.50;10463500;28;20279;-59
2022/03/20 10:26:21;;;;;;;8.73;5.50;;;;;;;7.52;35.87;97773.19;10449585;28;20224;-58
2022/03/20 10:31:22;;;;;;;15.23;7.53;;;;;;;8.17;34.91;97784.91;10382947;28;20201;-58
2022/03/20 10:36:23;;;;;;;10.43;6.03;;;;;;;7.25;34.30;97729.88;10369591;28;20201;-58
2022/03/20 10:41:26;;;;;;;9.37;4.70;;;;;;;7.42;35.21;97735.66;10370162;28;20566;-59
2022/03/20 10:46:31;;;;;;;8.60;5.50;;;;;;;7.98;34.98;97768.97;10369864;28;20588;-58
2022/03/20 10:51:38;;;;;;;9.03;5.50;;;;;;;8.29;33.53;97748.41;10371014;28;20703;-58
2022/03/20 10:56:53;;;;;;;13.63;7.37;;;;;;;8.39;33.81;97750.19;10377973;28;20217;-59
2022/03/20 11:01:54;;;;;;;12.03;5.57;;;;;;;7.89;34.39;97736.56;10377726;28;20633;-56
2022/03/20 11:06:54;;;;;;;10.37;5.03;;;;;;;9.25;33.02;97758.38;10376764;28;20233;-59
2022/03/20 11:11:58;;;;;;;9.40;5.53;;;;;;;8.21;34.17;97722.88;10376772;28;20185;-57
2022/03/20 11:17:04;;;;;;;12.17;6.40;;;;;;;9.14;34.45;97776.66;10376259;28;20232;-58
2022/03/20 11:22:06;;;;;;;11.47;5.33;;;;;;;8.41;33.56;97726.56;10376323;28;20206;-59
2022/03/20 11:27:08;;;;;;;9.60;4.67;;;;;;;8.73;33.10;97718.06;10376542;28;20237;-58
2022/03/20 11:32:09;;;;;;;8.70;5.83;;;;;;;8.79;33.25;97733.25;10357933;28;20656;-55
2022/03/20 11:37:10;;;;;;;8.10;5.13;;;;;;;9.27;32.64;97719.84;10376411;28;20220;-58
2022/03/20 11:42:22;;;;;;;6.37;3.53;;;;;;;9.35;32.05;97681.81;10375127;28;20201;-57
2022/03/20 11:47:27;;;;;;;8.17;4.33;;;;;;;9.56;32.40;97705.38;10375036;28;20229;-59
2022/03/20 11:52:44;;;;;;;7.83;4.47;;;;;;;9.10;31.71;97689.00;10374973;28;20271;-56
2022/03/20 11:57:45;;;;;;;6.67;4.13;;;;;;;8.97;32.24;97652.56;10375292;28;20216;-60
2022/03/20 12:02:48;;;;;;;8.73;5.43;;;;;;;9.62;31.97;97644.69;10374987;28;20674;-59
2022/03/20 12:08:26;;;;;;;10.80;5.00;;;;;;;10.40;31.12;97646.91;10357093;28;20206;-57
2022/03/20 12:14:03;;;;;;;7.53;4.40;;;;;;;10.51;30.40;97621.44;10374682;28;20284;-60
2022/03/20 12:19:13;;;;;;;5.23;4.47;;;;;;;10.43;29.84;97628.31;10373940;28;20232;-57
2022/03/20 12:24:35;;;;;;;4.43;3.17;;;;;;;9.51;30.35;97590.66;10376959;28;20335;-60
2022/03/20 12:29:36;;;;;;;6.13;3.67;;;;;;;10.40;29.75;97581.44;10425174;28;20216;-58
2022/03/20 12:34:36;;;;;;;10.10;4.10;;;;;;;10.21;30.24;97601.31;10451778;28;20180;-56
2022/03/20 12:39:55;;;;;;;8.13;2.87;;;;;;;9.64;29.52;97546.81;10454474;28;20278;-56
2022/03/20 12:44:55;;;;;;;3.13;2.27;;;;;;;10.13;29.57;97575.00;10377232;28;20219;-59
2022/03/20 12:50:09;;;;;;;10.67;3.90;;;;;;;10.82;29.60;97589.09;10372564;28;20201;-57
2022/03/20 12:55:09;;;;;;;5.03;2.50;;;;;;;9.99;28.84;97535.13;10372993;28;20264;-57
2022/03/20 13:00:16;;;;;;;5.37;3.60;;;;;;;10.68;29.48;97591.16;10371971;28;20246;-61
2022/03/20 13:05:16;;;;;;;43.10;3.57;;;;;;;10.46;29.13;97557.31;10372086;28;20359;-57
2022/03/20 13:10:16;;;;;;;6.27;3.40;;;;;;;11.74;29.97;97640.31;10371664;28;20757;-60
2022/03/20 13:15:24;;;;;;;6.00;3.90;;;;;;;10.96;29.96;97596.56;10369087;28;20607;-57
2022/03/20 13:20:27;;;;;;;6.73;4.00;;;;;;;10.70;30.37;97646.06;10371286;28;20181;-57
2022/03/20 13:25:30;;;;;;;6.27;3.87;;;;;;;11.80;30.37;97673.88;10370652;28;20225;-57
2022/03/20 13:30:37;;;;;;;12.40;4.50;;;;;;;10.17;29.96;97568.53;10370171;28;20200;-58
2022/03/20 13:35:37;;;;;;;8.30;5.47;;;;;;;10.97;29.07;97572.00;10369823;28;20300;-56
2022/03/20 13:40:39;;;;;;;6.53;3.30;;;;;;;10.67;28.70;97600.00;10370345;28;20676;-59
2022/03/20 13:45:40;;;;;;;6.33;3.23;;;;;;;11.15;28.97;97584.41;10368070;28;20225;-58
2022/03/20 13:50:40;;;;;;;5.63;2.83;;;;;;;10.67;29.60;97605.25;10370765;28;20193;-55
2022/03/20 13:55:41;;;;;;;5.47;3.00;;;;;;;10.78;29.68;97640.13;10370812;28;20701;-57
2022/03/20 14:00:43;;;;;;;7.47;3.67;;;;;;;10.34;30.11;97609.00;10370557;28;20246;-57
2022/03/20 14:05:50;;;;;;;7.13;3.00;;;;;;;11.20;28.54;97590.91;10370388;28;20228;-59
2022/03/20 14:10:58;;;;;;;8.07;3.63;;;;;;;10.25;29.40;97587.03;10370450;28;20256;-59
2022/03/20 14:16:03;;;;;;;5.13;2.93;;;;;;;10.38;29.60;97606.94;10370253;28;20233;-58
2022/03/20 14:21:16;;;;;;;6.13;3.97;;;;;;;10.95;30.09;97639.50;10370199;28;20194;-59
2022/03/20 14:26:19;;;;;;;9.40;3.90;;;;;;;10.63;30.78;97661.50;10372520;28;20229;-56
2022/03/20 14:41:59;;;;;;;9.17;4.03;;;;;;;10.19;29.74;97611.13;10377827;28;20184;-58
2022/03/20 14:47:04;;;;;;;6.00;3.67;;;;;;;10.16;30.26;97593.88;10377575;28;20225;-55
2022/03/20 14:52:05;;;;;;;8.47;4.63;;;;;;;9.66;30.93;97637.41;10377773;28;20232;-57
2022/03/20 14:57:06;;;;;;;5.83;3.33;;;;;;;10.42;30.17;97651.06;10377496;28;20217;-55
2022/03/20 15:02:07;;;;;;;5.03;3.27;;;;;;;10.09;30.95;97620.72;10376961;28;20613;-59
2022/03/20 15:07:08;;;;;;;14.13;7.20;;;;;;;10.16;30.99;97641.00;10376734;28;20291;-52
2022/03/20 15:12:09;;;;;;;7.80;4.30;;;;;;;10.61;31.28;97637.22;10376737;28;20351;-60
2022/03/20 15:17:09;;;;;;;6.97;4.00;;;;;;;10.16;30.85;97620.06;10376194;28;20359;-60
2022/03/20 15:22:10;;;;;;;9.87;4.70;;;;;;;10.41;31.25;97669.53;10375939;28;20211;-60
2022/03/20 15:27:13;;;;;;;8.67;5.37;;;;;;;10.89;30.45;97671.50;10375892;28;20240;-59
2022/03/20 15:32:14;;;;;;;12.00;5.37;;;;;;;9.91;30.63;97626.56;10375479;28;20189;-60
2022/03/20 15:37:15;;;;;;;10.90;4.87;;;;;;;9.61;30.75;97624.72;10374967;28;20212;-61
2022/03/20 15:42:15;;;;;;;11.23;5.30;;;;;;;10.30;31.18;97666.00;10375233;28;20236;-61
2022/03/20 15:47:16;;;;;;;7.40;4.63;;;;;;;9.61;31.46;97654.31;10375155;28;20308;-58
2022/03/20 15:52:17;;;;;;;9.00;4.77;;;;;;;9.58;32.18;97701.66;10374732;28;20214;-61
2022/03/20 15:57:17;;;;;;;7.77;4.90;;;;;;;9.62;31.58;97679.53;10373821;28;20633;-58
2022/03/20 16:02:17;;;;;;;8.63;3.90;;;;;;;9.01;32.08;97669.66;10374073;28;20620;-59
2022/03/20 16:07:18;;;;;;;6.93;4.50;;;;;;;8.51;32.99;97674.47;10374361;28;20577;-61
2022/03/20 16:12:18;;;;;;;14.27;7.93;;;;;;;8.01;33.52;97693.06;10374524;28;20746;-60
2022/03/20 16:17:19;;;;;;;7.37;4.30;;;;;;;7.62;34.54;97687.28;10373857;28;20237;-57
2022/03/20 16:22:19;;;;;;;10.07;5.47;;;;;;;7.63;34.71;97718.44;10373494;28;20287;-60
2022/03/20 16:32:38;;;;;;;10.73;5.80;;;;;;;7.31;35.85;97752.91;10373106;28;20193;-60
2022/03/20 16:37:38;;;;;;;10.53;5.50;;;;;;;7.00;36.38;97764.69;10373325;28;20197;-60
2022/03/20 16:42:39;;;;;;;12.83;5.23;;;;;;;6.96;35.19;97730.19;10373009;28;20189;-58
2022/03/20 16:47:39;;;;;;;7.90;4.87;;;;;;;6.84;35.23;97731.06;10372284;28;20775;-58
2022/03/20 16:52:40;;;;;;;13.77;5.07;;;;;;;6.71;35.25;97728.50;10371335;28;20602;-58
2022/03/20 16:57:41;;;;;;;9.80;5.33;;;;;;;6.54;35.86;97753.09;10371819;28;20206;-58
2022/03/20 17:02:42;;;;;;;9.83;5.60;;;;;;;6.45;36.19;97771.09;10372024;28;20619;-60
2022/03/20 17:07:42;;;;;;;14.30;5.80;;;;;;;6.32;36.90;97773.69;10371403;28;20323;-60
2022/03/20 17:12:43;;;;;;;18.20;5.77;;;;;;;6.20;36.57;97775.34;10371608;28;20193;-59
2022/03/20 17:17:43;;;;;;;11.50;5.37;;;;;;;6.08;37.01;97784.84;10371241;28;20245;-58
2022/03/20 17:22:44;;;;;;;8.37;5.77;;;;;;;5.85;38.51;97833.94;10371030;28;20233;-62
2022/03/20 17:27:45;;;;;;;12.27;5.97;;;;;;;5.81;37.77;97805.63;10373514;28;20220;-58
2022/03/20 17:32:45;;;;;;;12.57;5.77;;;;;;;5.70;38.05;97827.97;10383093;28;20202;-53
2022/03/20 17:37:46;;;;;;;10.07;6.43;;;;;;;5.59;38.76;97853.81;10383848;28;20591;-56
2022/03/20 17:42:48;;;;;;;11.50;6.60;;;;;;;5.42;39.50;97867.03;10384608;28;20299;-55
2022/03/20 17:47:48;;;;;;;10.90;6.07;;;;;;;5.25;39.85;97876.69;10379492;28;20695;-56
2022/03/20 17:52:49;;;;;;;15.23;6.53;;;;;;;5.15;40.73;97896.38;10372424;28;20201;-60
2022/03/20 17:57:50;;;;;;;10.80;6.23;;;;;;;4.99;41.42;97912.88;10370295;28;20762;-57
2022/03/20 18:08:09;;;;;;;11.53;7.27;;;;;;;4.61;42.41;97931.56;10370232;28;20946;-56
2022/03/20 18:13:11;;;;;;;10.97;6.70;;;;;;;4.62;42.38;97938.44;10370702;28;20208;-59
2022/03/20 18:18:11;;;;;;;14.00;7.37;;;;;;;4.61;42.71;97944.53;10370497;28;20706;-58
2022/03/20 18:23:12;;;;;;;12.07;6.97;;;;;;;4.90;41.97;97938.56;10369199;28;20225;-56
2022/03/20 18:28:12;;;;;;;11.97;8.37;;;;;;;4.82;42.63;97957.19;10370093;28;20221;-57
2022/03/20 18:33:12;;;;;;;12.47;6.93;;;;;;;4.79;43.18;97966.00;10368454;28;20197;-56
2022/03/20 18:38:13;;;;;;;20.17;7.87;;;;;;;4.64;44.46;98000.63;10368994;28;20279;-58
2022/03/20 18:43:13;;;;;;;16.13;9.10;;;;;;;4.53;44.00;97995.19;10368684;28;20638;-54
2022/03/20 18:48:13;;;;;;;11.27;6.67;;;;;;;4.71;43.33;97977.75;10368974;28;20607;-56
2022/03/20 18:53:14;;;;;;;14.47;9.17;;;;;;;4.61;43.48;97991.25;10377776;28;20232;-57
2022/03/20 18:58:14;;;;;;;16.47;8.53;;;;;;;4.48;44.47;98026.59;10446234;28;20226;-58
2022/03/20 19:03:15;;;;;;;14.53;5.83;;;;;;;4.45;44.23;98021.56;10450847;28;20220;-57
2022/03/20 19:08:15;;;;;;;18.90;10.13;;;;;;;4.29;44.77;98017.25;10437629;28;20219;-56
2022/03/20 19:13:15;;;;;;;15.20;7.17;;;;;;;4.43;44.23;97981.91;10441704;28;20185;-53
2022/03/20 19:18:18;;;;;;;13.73;8.13;;;;;;;4.35;44.49;98008.28;10425910;28;20227;-55
2022/03/20 19:23:19;;;;;;;17.90;8.13;;;;;;;4.32;44.58;97994.63;10433440;28;20201;-58
2022/03/20 19:28:21;;;;;;;13.87;6.70;;;;;;;4.22;44.77;97999.50;10435043;28;20765;-57
2022/03/20 19:33:22;;;;;;;17.60;8.43;;;;;;;4.18;44.42;97996.25;10435473;28;20280;-61
2022/03/20 19:43:42;;;;;;;14.57;6.60;;;;;;;4.16;44.85;97995.50;10434069;28;20212;-59
2022/03/20 19:48:42;;;;;;;15.07;8.73;;;;;;;4.17;45.12;97998.94;10420550;28;20620;-56
2022/03/20 19:53:43;;;;;;;14.10;7.73;;;;;;;4.07;44.86;97980.44;10416107;28;20181;-58
2022/03/20 19:58:46;;;;;;;13.57;8.20;;;;;;;3.98;45.12;97981.78;10426243;28;20220;-58
2022/03/20 20:03:48;;;;;;;18.17;6.97;;;;;;;3.98;45.10;97980.94;10415515;28;20220;-58
2022/03/20 20:08:48;;;;;;;20.73;8.77;;;;;;;3.95;45.16;97973.31;10433754;28;20209;-54
2022/03/20 20:19:07;;;;;;;14.83;9.07;;;;;;;3.85;45.91;97975.59;10413428;28;20236;-60
2022/03/20 20:24:07;;;;;;;18.47;8.67;;;;;;;3.86;45.46;97979.84;10414717;28;20235;-57
2022/03/20 20:29:08;;;;;;;15.93;9.00;;;;;;;3.77;46.17;97983.78;10417558;28;20208;-58
2022/03/20 20:34:09;;;;;;;13.57;7.83;;;;;;;3.74;45.89;97984.78;10414926;28;20193;-57
2022/03/20 20:39:09;;;;;;;11.77;6.23;;;;;;;3.85;45.37;97960.03;10414573;28;20215;-58
2022/03/20 20:44:12;;;;;;;16.30;8.80;;;;;;;3.84;45.50;97966.13;10414253;28;20216;-58
2022/03/20 20:49:17;;;;;;;11.67;6.53;;;;;;;3.78;45.82;97974.25;10425748;28;20216;-53
2022/03/20 20:54:17;;;;;;;16.03;9.47;;;;;;;3.67;46.45;97990.38;10426464;28;20610;-57
2022/03/20 20:59:19;;;;;;;15.77;9.63;;;;;;;3.59;46.86;97995.13;10420471;28;20375;-54
2022/03/20 21:04:19;;;;;;;13.87;6.67;;;;;;;3.68;45.97;97966.97;10412099;28;20220;-57
2022/03/20 21:14:39;;;;;;;13.37;8.37;;;;;;;3.49;46.46;97977.50;10412263;28;20180;-57
2022/03/20 21:19:41;;;;;;;16.77;8.77;;;;;;;3.52;47.35;98002.38;10412316;28;20240;-55
2022/03/20 21:24:41;;;;;;;16.97;8.47;;;;;;;3.59;46.70;97984.78;10416136;28;20228;-55
2022/03/20 21:29:42;;;;;;;17.77;8.10;;;;;;;3.35;47.86;98011.03;10413673;28;20255;-59
2022/03/20 21:34:42;;;;;;;9.30;5.20;;;;;;;3.41;47.34;97997.75;10409465;28;20185;-55
2022/03/20 21:39:43;;;;;;;13.47;8.10;;;;;;;3.38;46.77;97985.81;10411914;28;20227;-53
2022/03/20 21:44:43;;;;;;;23.83;9.53;;;;;;;3.39;47.15;97990.06;10411475;28;20710;-52
2022/03/20 21:49:44;;;;;;;11.80;6.67;;;;;;;3.37;47.22;97986.72;10411539;28;20683;-52
2022/03/20 21:54:44;;;;;;;13.30;8.30;;;;;;;3.20;47.58;98000.56;10411242;28;20327;-51
2022/03/20 21:59:45;;;;;;;9.37;5.20;;;;;;;3.38;46.88;97979.78;10411067;28;20235;-51
2022/03/20 22:04:45;;;;;;;10.83;6.43;;;;;;;3.31;47.19;97994.81;10410993;28;20282;-51
2022/03/20 22:09:47;;;;;;;15.60;9.50;;;;;;;3.24;47.33;97996.03;10410507;28;20220;-52
2022/03/20 22:14:47;;;;;;;16.30;8.80;;;;;;;3.12;47.68;98012.22;10410845;28;20204;-51
2022/03/20 22:19:48;;;;;;;15.53;9.07;;;;;;;3.02;47.51;98014.44;10410763;28;20242;-51
2022/03/20 22:24:48;;;;;;;14.63;9.10;;;;;;;2.79;49.15;98026.75;10429326;23;20264;-58
2022/03/20 22:29:48;;;;;;;18.17;7.90;;;;;;;2.95;48.13;98019.06;10410520;28;20196;-59
2022/03/20 22:40:10;;;;;;;15.30;8.67;;;;;;;2.88;47.91;98022.88;10410325;28;20196;-57
2022/03/20 22:45:10;;;;;;;15.43;9.10;;;;;;;2.85;48.38;98023.88;10410302;28;20290;-60
2022/03/20 22:50:13;;;;;;;17.97;8.47;;;;;;;2.40;50.15;98055.38;10415743;28;20196;-56
2022/03/20 22:55:18;;;;;;;19.00;8.97;;;;;;;2.33;50.55;98072.94;10418832;28;20212;-59
2022/03/20 23:00:27;;;;;;;13.60;8.37;;;;;;;2.53;48.76;98042.69;10418355;28;20201;-60
2022/03/20 23:05:29;;;;;;;13.80;7.87;;;;;;;2.15;50.34;98069.44;10418115;28;20232;-58
2022/03/20 23:10:30;;;;;;;14.17;7.80;;;;;;;1.62;51.95;98099.34;10417906;28;20199;-58
2022/03/20 23:15:30;;;;;;;13.87;7.90;;;;;;;1.31;54.54;98152.28;10417980;28;20717;-59
2022/03/20 23:20:30;;;;;;;12.80;7.87;;;;;;;1.46;53.83;98139.66;10417719;28;20192;-57
2022/03/20 23:25:32;;;;;;;18.33;8.10;;;;;;;1.42;54.36;98159.59;10416961;28;20236;-59
2022/03/20 23:30:32;;;;;;;16.07;8.67;;;;;;;1.76;52.04;98106.50;10417339;28;20555;-57
2022/03/20 23:35:34;;;;;;;13.00;8.27;;;;;;;1.95;50.40;98083.28;10417219;28;20197;-59
2022/03/20 23:40:36;;;;;;;14.27;7.53;;;;;;;2.17;49.75;98059.88;10417870;28;20203;-61
2022/03/20 23:45:38;;;;;;;13.47;7.57;;;;;;;2.12;49.80;98062.66;10417807;28;20315;-58
2022/03/20 23:50:39;;;;;;;15.27;8.40;;;;;;;2.20;49.13;98046.81;10416527;28;20196;-53
2022/03/20 23:55:39;;;;;;;13.23;7.67;;;;;;;2.29;48.55;98037.78;10416383;28;20690;-53
